Time;durP1;ratioP1;P1;durP2;ratioP2;P2;SDS_P1;SDS_P2;PMS_P1;PMS_P2;Temp;Humidity;BMP_temperature;BMP_pressure;BME280_temperature;BME280_humidity;BME280_pressure;Samples;Min_cycle;Max_cycle;Signal;HPM_P1;HPM_P2
2023/08/21 00:01:06;;;;;;;;;;;;;;;;;;4955688;28;89588;-65
2023/08/21 00:03:31;;;;;;;;;;;;;;;;;;4960996;28;89511;-63
2023/08/21 00:05:56;;;;;;;;;;;;;;;;;;4951585;28;89582;-64
2023/08/21 00:08:21;;;;;;;;;;;;;;;;;;4955911;28;89640;-64
2023/08/21 00:10:47;;;;;;;;;;;;;;;;;;4960838;28;89170;-65
2023/08/21 00:13:13;;;;;;;;;;;;;;;;;;4951793;28;89154;-64
2023/08/21 00:15:38;;;;;;;;;;;;;;;;;;4953951;28;89557;-68
2023/08/21 00:18:03;;;;;;;;;;;;;;;;;;4961799;28;90495;-64
2023/08/21 00:20:29;;;;;;;;;;;;;;;;;;4956599;28;90994;-64
2023/08/21 00:22:54;;;;;;;;;;;;;;;;;;4958455;28;93304;-64
2023/08/21 00:25:20;;;;;;;;;;;;;;;;;;4951472;28;89945;-63
2023/08/21 00:27:46;;;;;;;;;;;;;;;;;;4958043;28;89570;-65
2023/08/21 00:30:11;;;;;;;;;;;;;;;;;;4959980;28;89519;-65
2023/08/21 00:32:36;;;;;;;;;;;;;;;;;;4957640;28;90521;-64
2023/08/21 00:35:01;;;;;;;;;;;;;;;;;;4956616;28;89709;-63
2023/08/21 00:37:27;;;;;;;;;;;;;;;;;;4955201;28;89410;-64
2023/08/21 00:39:52;;;;;;;;;;;;;;;;;;4959213;28;89547;-64
2023/08/21 00:42:17;;;;;;;;;;;;;;;;;;4959287;28;89994;-63
2023/08/21 00:44:42;;;;;;;;;;;;;;;;;;4957538;28;89351;-64
2023/08/21 00:47:07;;;;;;;;;;;;;;;;;;4956020;28;89284;-64
2023/08/21 00:49:33;;;;;;;;;;;;;;;;;;4956349;28;90089;-64
2023/08/21 00:51:59;;;;;;;;;;;;;;;;;;4960207;28;89703;-64
2023/08/21 00:54:24;;;;;;;;;;;;;;;;;;4956382;28;89547;-67
2023/08/21 00:56:52;;;;;;;;;;;;;;;;;;4958611;28;89092;-68
2023/08/21 00:59:17;;;;;;;;;;;;;;;;;;4966305;28;89975;-63
2023/08/21 01:01:43;;;;;;;;;;;;;;;;;;4958619;28;89445;-63
2023/08/21 01:04:08;;;;;;;;;;;;;;;;;;4960642;28;89213;-65
2023/08/21 01:06:34;;;;;;;;;;;;;;;;;;4963348;28;89658;-64
2023/08/21 01:09:11;;;;;;;;;;;;;;;;;;4962647;28;90874;-63
2023/08/21 01:11:52;;;;;;;;;;;;;;;;;;4954005;28;89575;-67
2023/08/21 01:14:28;;;;;;;;;;;;;;;;;;4966026;28;89986;-64
2023/08/21 01:16:56;;;;;;;;;;;;;;;;;;4960328;28;90337;-63
2023/08/21 01:19:38;;;;;;;;;;;;;;;;;;4955393;28;90266;-67
2023/08/21 01:22:03;;;;;;;;;;;;;;;;;;4976042;28;92142;-65
2023/08/21 01:24:28;;;;;;;;;;;;;;;;;;4963210;28;89550;-63
2023/08/21 01:26:54;;;;;;;;;;;;;;;;;;4956957;28;89813;-64
2023/08/21 01:29:19;;;;;;;;;;;;;;;;;;4963838;28;89903;-66
2023/08/21 01:31:47;;;;;;;;;;;;;;;;;;4961631;28;89066;-64
2023/08/21 01:34:14;;;;;;;;;;;;;;;;;;4961572;28;90764;-64
2023/08/21 01:36:39;;;;;;;;;;;;;;;;;;4960640;28;91087;-63
2023/08/21 01:39:05;;;;;;;;;;;;;;;;;;4954374;28;89712;-63
2023/08/21 01:41:30;;;;;;;;;;;;;;;;;;4960103;28;90150;-63
2023/08/21 01:43:55;;;;;;;;;;;;;;;;;;4960509;28;89234;-64
2023/08/21 01:46:20;;;;;;;;;;;;;;;;;;4961168;28;90936;-64
2023/08/21 01:48:45;;;;;;;;;;;;;;;;;;4959426;28;89505;-63
2023/08/21 01:51:11;;;;;;;;;;;;;;;;;;4958496;28;90882;-64
2023/08/21 01:53:36;;;;;;;;;;;;;;;;;;4963955;28;89594;-64
2023/08/21 01:56:01;;;;;;;;;;;;;;;;;;4960556;28;89456;-63
2023/08/21 01:58:26;;;;;;;;;;;;;;;;;;4956675;28;89466;-64
2023/08/21 02:00:51;;;;;;;;;;;;;;;;;;4961964;28;89847;-64
2023/08/21 02:03:17;;;;;;;;;;;;;;;;;;4960135;28;89542;-63
2023/08/21 02:05:42;;;;;;;;;;;;;;;;;;4957832;28;89329;-65
2023/08/21 02:08:09;;;;;;;;;;;;;;;;;;4959837;28;89557;-64
2023/08/21 02:10:35;;;;;;;;;;;;;;;;;;4961823;28;89673;-64
2023/08/21 02:13:00;;;;;;;;;;;;;;;;;;4961722;28;89102;-63
2023/08/21 02:15:25;;;;;;;;;;;;;;;;;;4956159;28;89527;-64
2023/08/21 02:17:50;;;;;;;;;;;;;;;;;;4956443;28;89214;-64
2023/08/21 02:20:15;;;;;;;;;;;;;;;;;;4952245;28;89245;-64
2023/08/21 02:22:41;;;;;;;;;;;;;;;;;;4958889;28;89402;-63
2023/08/21 02:25:06;;;;;;;;;;;;;;;;;;4958004;28;90629;-63
2023/08/21 02:27:31;;;;;;;;;;;;;;;;;;4956785;28;90380;-63
2023/08/21 02:29:57;;;;;;;;;;;;;;;;;;4962753;28;89740;-63
2023/08/21 02:32:22;;;;;;;;;;;;;;;;;;4975250;28;90026;-66
2023/08/21 02:34:47;;;;;;;;;;;;;;;;;;4954948;28;89780;-64
2023/08/21 02:37:12;;;;;;;;;;;;;;;;;;4957634;28;89105;-64
2023/08/21 02:39:38;;;;;;;;;;;;;;;;;;4961276;28;89631;-67
2023/08/21 02:42:03;;;;;;;;;;;;;;;;;;4960746;28;89776;-66
2023/08/21 02:44:28;;;;;;;;;;;;;;;;;;4958024;28;89301;-64
2023/08/21 02:46:53;;;;;;;;;;;;;;;;;;4953200;28;89560;-64
2023/08/21 02:49:18;;;;;;;;;;;;;;;;;;4962261;28;89567;-64
2023/08/21 02:51:44;;;;;;;;;;;;;;;;;;4959326;28;89477;-63
2023/08/21 02:54:09;;;;;;;;;;;;;;;;;;4959667;28;89478;-63
2023/08/21 02:56:34;;;;;;;;;;;;;;;;;;4963642;28;89362;-66
2023/08/21 02:58:59;;;;;;;;;;;;;;;;;;4960976;28;89132;-64
2023/08/21 03:01:24;;;;;;;;;;;;;;;;;;4966003;28;89603;-63
2023/08/21 03:03:50;;;;;;;;;;;;;;;;;;4959407;28;89429;-64
2023/08/21 03:06:16;;;;;;;;;;;;;;;;;;4959659;28;89658;-65
2023/08/21 03:08:43;;;;;;;;;;;;;;;;;;4956364;28;90206;-68
2023/08/21 03:11:08;;;;;;;;;;;;;;;;;;4958965;28;89222;-64
2023/08/21 03:13:33;;;;;;;;;;;;;;;;;;4958027;28;89497;-65
2023/08/21 03:15:58;;;;;;;;;;;;;;;;;;4955280;28;90835;-66
2023/08/21 03:18:24;;;;;;;;;;;;;;;;;;4952301;28;89440;-65
2023/08/21 03:20:49;;;;;;;;;;;;;;;;;;4950752;28;88939;-66
2023/08/21 03:23:14;;;;;;;;;;;;;;;;;;4963367;28;89692;-64
2023/08/21 03:25:39;;;;;;;;;;;;;;;;;;4955459;28;89686;-64
2023/08/21 03:28:05;;;;;;;;;;;;;;;;;;4955881;28;90685;-63
2023/08/21 03:30:30;;;;;;;;;;;;;;;;;;4958060;28;89305;-63
2023/08/21 03:32:55;;;;;;;;;;;;;;;;;;4956342;28;90312;-63
2023/08/21 03:35:20;;;;;;;;;;;;;;;;;;4955115;28;89625;-65
2023/08/21 03:37:45;;;;;;;;;;;;;;;;;;4961227;28;89163;-64
2023/08/21 03:40:11;;;;;;;;;;;;;;;;;;4957820;28;89434;-65
2023/08/21 03:42:36;;;;;;;;;;;;;;;;;;4959430;28;89467;-65
2023/08/21 03:45:03;;;;;;;;;;;;;;;;;;4961193;28;89582;-68
2023/08/21 03:47:29;;;;;;;;;;;;;;;;;;4954678;28;89871;-65
2023/08/21 03:49:54;;;;;;;;;;;;;;;;;;4954183;28;89027;-63
2023/08/21 03:52:19;;;;;;;;;;;;;;;;;;4957978;28;89852;-63
2023/08/21 03:54:44;;;;;;;;;;;;;;;;;;4956316;28;89167;-63
2023/08/21 03:57:09;;;;;;;;;;;;;;;;;;4956029;28;89684;-65
2023/08/21 03:59:35;;;;;;;;;;;;;;;;;;4953687;28;89473;-63
2023/08/21 04:02:00;;;;;;;;;;;;;;;;;;4957661;28;89076;-64
2023/08/21 04:04:25;;;;;;;;;;;;;;;;;;4959528;28;89603;-64
2023/08/21 04:06:50;;;;;;;;;;;;;;;;;;4952895;28;89755;-63
2023/08/21 04:09:15;;;;;;;;;;;;;;;;;;4961404;28;89640;-65
2023/08/21 04:11:41;;;;;;;;;;;;;;;;;;4955893;28;89983;-65
2023/08/21 04:14:06;;;;;;;;;;;;;;;;;;4953281;28;89669;-65
2023/08/21 04:16:31;;;;;;;;;;;;;;;;;;4958127;28;89166;-64
2023/08/21 04:18:57;;;;;;;;;;;;;;;;;;4960073;28;90746;-64
2023/08/21 04:21:22;;;;;;;;;;;;;;;;;;4961436;28;89195;-63
2023/08/21 04:23:47;;;;;;;;;;;;;;;;;;4954107;28;89632;-64
2023/08/21 04:26:13;;;;;;;;;;;;;;;;;;4957266;28;90708;-63
2023/08/21 04:28:38;;;;;;;;;;;;;;;;;;4955148;28;89661;-64
2023/08/21 04:31:06;;;;;;;;;;;;;;;;;;4966251;28;89981;-63
2023/08/21 04:33:31;;;;;;;;;;;;;;;;;;4965856;28;89866;-68
2023/08/21 04:35:57;;;;;;;;;;;;;;;;;;4961851;28;89569;-63
2023/08/21 04:38:22;;;;;;;;;;;;;;;;;;4960617;28;89551;-63
2023/08/21 04:40:47;;;;;;;;;;;;;;;;;;4962935;28;89505;-64
2023/08/21 04:43:15;;;;;;;;;;;;;;;;;;4963211;28;89671;-63
2023/08/21 04:45:52;;;;;;;;;;;;;;;;;;4957167;28;91275;-63
2023/08/21 04:48:18;;;;;;;;;;;;;;;;;;4966447;28;89448;-65
2023/08/21 04:50:43;;;;;;;;;;;;;;;;;;4960285;28;90697;-63
2023/08/21 04:53:08;;;;;;;;;;;;;;;;;;4957876;28;89940;-64
2023/08/21 04:55:34;;;;;;;;;;;;;;;;;;4961305;28;90710;-67
2023/08/21 04:57:59;;;;;;;;;;;;;;;;;;4958567;28;89800;-63
2023/08/21 05:00:24;;;;;;;;;;;;;;;;;;4967498;28;90312;-68
2023/08/21 05:02:49;;;;;;;;;;;;;;;;;;4957335;28;89653;-64
2023/08/21 05:05:15;;;;;;;;;;;;;;;;;;4965013;28;89539;-65
2023/08/21 05:07:40;;;;;;;;;;;;;;;;;;4960806;28;90758;-63
2023/08/21 05:10:06;;;;;;;;;;;;;;;;;;4960195;28;89608;-63
2023/08/21 05:12:31;;;;;;;;;;;;;;;;;;4956925;28;89642;-64
2023/08/21 05:14:56;;;;;;;;;;;;;;;;;;4960717;28;89709;-63
2023/08/21 05:17:22;;;;;;;;;;;;;;;;;;4963593;28;90668;-67
2023/08/21 05:19:47;;;;;;;;;;;;;;;;;;4956042;28;90287;-64
2023/08/21 05:22:12;;;;;;;;;;;;;;;;;;4962435;28;89830;-64
2023/08/21 05:24:37;;;;;;;;;;;;;;;;;;4960691;28;89656;-63
2023/08/21 05:27:04;;;;;;;;;;;;;;;;;;4960840;28;89285;-67
2023/08/21 05:29:29;;;;;;;;;;;;;;;;;;4952441;28;89044;-64
2023/08/21 05:31:54;;;;;;;;;;;;;;;;;;4962430;28;89502;-65
2023/08/21 05:34:20;;;;;;;;;;;;;;;;;;4959870;28;89711;-63
2023/08/21 05:36:45;;;;;;;;;;;;;;;;;;4959536;28;90799;-64
2023/08/21 05:39:10;;;;;;;;;;;;;;;;;;4957995;28;89212;-64
2023/08/21 05:41:35;;;;;;;;;;;;;;;;;;4952739;28;89061;-63
2023/08/21 05:44:00;;;;;;;;;;;;;;;;;;4963667;28;89452;-65
2023/08/21 05:46:26;;;;;;;;;;;;;;;;;;4955458;28;89412;-64
2023/08/21 05:48:51;;;;;;;;;;;;;;;;;;4958541;28;89339;-63
2023/08/21 05:51:16;;;;;;;;;;;;;;;;;;4960456;28;89460;-63
2023/08/21 05:53:41;;;;;;;;;;;;;;;;;;4959059;28;90042;-64
2023/08/21 05:56:06;;;;;;;;;;;;;;;;;;4957382;28;89611;-64
2023/08/21 05:58:32;;;;;;;;;;;;;;;;;;4959517;28;89950;-65
2023/08/21 06:00:58;;;;;;;;;;;;;;;;;;4954127;28;89968;-64
2023/08/21 06:03:23;;;;;;;;;;;;;;;;;;4963132;28;89709;-67
2023/08/21 06:05:48;;;;;;;;;;;;;;;;;;4957813;28;89197;-64
2023/08/21 06:08:14;;;;;;;;;;;;;;;;;;4957544;28;89193;-64
2023/08/21 06:10:39;;;;;;;;;;;;;;;;;;4955822;28;90820;-66
2023/08/21 06:13:04;;;;;;;;;;;;;;;;;;4960805;28;89834;-64
2023/08/21 06:15:29;;;;;;;;;;;;;;;;;;4955287;28;89666;-65
2023/08/21 06:17:55;;;;;;;;;;;;;;;;;;4954591;28;89370;-65
2023/08/21 06:20:20;;;;;;;;;;;;;;;;;;4954304;28;89429;-66
2023/08/21 06:22:45;;;;;;;;;;;;;;;;;;4954316;28;89465;-64
2023/08/21 06:25:11;;;;;;;;;;;;;;;;;;4957885;28;89556;-63
2023/08/21 06:27:36;;;;;;;;;;;;;;;;;;4956577;28;89483;-64
2023/08/21 06:30:01;;;;;;;;;;;;;;;;;;4956593;28;89790;-66
2023/08/21 06:32:26;;;;;;;;;;;;;;;;;;4958552;28;89118;-65
2023/08/21 06:34:52;;;;;;;;;;;;;;;;;;4957258;28;89483;-65
2023/08/21 06:37:17;;;;;;;;;;;;;;;;;;4959590;28;89551;-64
2023/08/21 06:39:42;;;;;;;;;;;;;;;;;;4956775;28;89535;-64
2023/08/21 06:42:07;;;;;;;;;;;;;;;;;;4960494;28;89659;-63
2023/08/21 06:44:32;;;;;;;;;;;;;;;;;;4955543;28;89948;-65
2023/08/21 06:46:58;;;;;;;;;;;;;;;;;;4955519;28;89130;-63
2023/08/21 06:49:23;;;;;;;;;;;;;;;;;;4961497;28;90774;-63
2023/08/21 06:51:48;;;;;;;;;;;;;;;;;;4957731;28;90002;-64
2023/08/21 06:54:14;;;;;;;;;;;;;;;;;;4957046;28;89268;-65
2023/08/21 06:56:39;;;;;;;;;;;;;;;;;;4963111;28;90624;-64
2023/08/21 06:59:04;;;;;;;;;;;;;;;;;;4955496;28;88984;-65
2023/08/21 07:01:29;;;;;;;;;;;;;;;;;;4955491;28;89713;-64
2023/08/21 07:03:55;;;;;;;;;;;;;;;;;;4955588;28;89638;-64
2023/08/21 07:06:20;;;;;;;;;;;;;;;;;;4959575;28;89628;-64
2023/08/21 07:08:45;;;;;;;;;;;;;;;;;;4965666;28;90781;-65
2023/08/21 07:11:12;;;;;;;;;;;;;;;;;;4949269;28;89164;-64
2023/08/21 07:13:37;;;;;;;;;;;;;;;;;;4954787;28;91473;-65
2023/08/21 07:16:03;;;;;;;;;;;;;;;;;;4956708;28;89773;-65
2023/08/21 07:18:30;;;;;;;;;;;;;;;;;;4960498;28;90420;-64
2023/08/21 07:20:55;;;;;;;;;;;;;;;;;;4955429;28;89777;-65
2023/08/21 07:23:20;;;;;;;;;;;;;;;;;;4956198;28;89321;-64
2023/08/21 07:25:46;;;;;;;;;;;;;;;;;;4950517;28;89529;-67
2023/08/21 07:28:11;;;;;;;;;;;;;;;;;;4957796;28;89549;-65
2023/08/21 07:30:37;;;;;;;;;;;;;;;;;;4958605;28;89190;-65
2023/08/21 07:33:02;;;;;;;;;;;;;;;;;;4961655;28;89517;-64
2023/08/21 07:35:27;;;;;;;;;;;;;;;;;;4954202;28;89547;-66
2023/08/21 07:37:53;;;;;;;;;;;;;;;;;;4959362;28;90205;-65
2023/08/21 07:40:18;;;;;;;;;;;;;;;;;;4962109;28;89557;-66
2023/08/21 07:42:43;;;;;;;;;;;;;;;;;;4954212;28;89425;-65
2023/08/21 07:45:08;;;;;;;;;;;;;;;;;;4962282;28;89704;-65
2023/08/21 07:47:34;;;;;;;;;;;;;;;;;;4959459;28;89515;-66
2023/08/21 07:49:59;;;;;;;;;;;;;;;;;;4957868;28;89213;-64
2023/08/21 07:52:24;;;;;;;;;;;;;;;;;;4959554;28;89219;-66
2023/08/21 07:54:53;;;;;;;;;;;;;;;;;;4957219;28;90271;-64
2023/08/21 07:57:18;;;;;;;;;;;;;;;;;;4959714;28;89310;-66
2023/08/21 07:59:44;;;;;;;;;;;;;;;;;;4958422;28;89058;-66
2023/08/21 08:02:11;;;;;;;;;;;;;;;;;;4959155;28;89315;-65
2023/08/21 08:04:36;;;;;;;;;;;;;;;;;;4950974;28;89970;-65
2023/08/21 08:07:02;;;;;;;;;;;;;;;;;;4962416;28;90213;-64
2023/08/21 08:09:27;;;;;;;;;;;;;;;;;;4956598;28;89933;-65
2023/08/21 08:11:52;;;;;;;;;;;;;;;;;;4950826;28;89354;-65
2023/08/21 08:14:17;;;;;;;;;;;;;;;;;;4958730;28;90913;-64
2023/08/21 08:16:42;;;;;;;;;;;;;;;;;;4956217;28;89128;-69
2023/08/21 08:19:08;;;;;;;;;;;;;;;;;;4953284;28;89388;-65
2023/08/21 08:21:33;;;;;;;;;;;;;;;;;;4954407;28;90343;-65
2023/08/21 08:23:58;;;;;;;;;;;;;;;;;;4955514;28;90098;-65
2023/08/21 08:26:23;;;;;;;;;;;;;;;;;;4955813;28;90349;-66
2023/08/21 08:28:48;;;;;;;;;;;;;;;;;;4954595;28;89809;-64
2023/08/21 08:31:14;;;;;;;;;;;;;;;;;;4960237;28;89235;-66
2023/08/21 08:33:40;;;;;;;;;;;;;;;;;;4952502;28;90070;-64
2023/08/21 08:36:05;;;;;;;;;;;;;;;;;;4955250;28;89280;-65
2023/08/21 08:38:30;;;;;;;;;;;;;;;;;;4953626;28;89053;-64
2023/08/21 08:40:56;;;;;;;;;;;;;;;;;;4956215;28;90415;-67
2023/08/21 08:43:23;;;;;;;;;;;;;;;;;;4958102;28;90033;-68
2023/08/21 08:45:49;;;;;;;;;;;;;;;;;;4953737;28;89683;-65
2023/08/21 08:48:15;;;;;;;;;;;;;;;;;;4953470;28;90062;-67
2023/08/21 08:50:41;;;;;;;;;;;;;;;;;;4948702;28;89129;-67
2023/08/21 08:53:08;;;;;;;;;;;;;;;;;;4958311;28;89659;-72
2023/08/21 08:55:33;;;;;;;;;;;;;;;;;;4956403;28;89965;-66
2023/08/21 08:57:59;;;;;;;;;;;;;;;;;;4950358;28;89133;-66
2023/08/21 09:00:25;;;;;;;;;;;;;;;;;;4949472;28;89999;-67
2023/08/21 09:02:51;;;;;;;;;;;;;;;;;;4950554;28;90312;-71
2023/08/21 09:05:16;;;;;;;;;;;;;;;;;;4955834;28;89921;-67
2023/08/21 09:07:42;;;;;;;;;;;;;;;;;;4960087;28;89590;-66
2023/08/21 09:10:17;;;;;;;;;;;;;;;;;;4948479;28;89813;-66
2023/08/21 09:12:45;;;;;;;;;;;;;;;;;;4950892;28;89504;-65
2023/08/21 09:15:11;;;;;;;;;;;;;;;;;;4951351;28;89197;-65
2023/08/21 09:17:36;;;;;;;;;;;;;;;;;;4955826;28;89517;-65
2023/08/21 09:20:05;;;;;;;;;;;;;;;;;;4953609;28;90290;-69
2023/08/21 09:22:30;;;;;;;;;;;;;;;;;;4956661;28;90205;-70
2023/08/21 09:25:04;;;;;;;;;;;;;;;;;;4952090;28;90704;-67
2023/08/21 09:27:30;;;;;;;;;;;;;;;;;;4959310;28;89533;-68
2023/08/21 09:29:55;;;;;;;;;;;;;;;;;;4955521;28;90339;-66
2023/08/21 09:32:20;;;;;;;;;;;;;;;;;;4961643;28;89873;-65
2023/08/21 09:34:46;;;;;;;;;;;;;;;;;;4954877;28;89292;-69
2023/08/21 09:37:11;;;;;;;;;;;;;;;;;;4956234;28;90520;-65
2023/08/21 09:39:37;;;;;;;;;;;;;;;;;;4954270;28;89582;-66
2023/08/21 09:42:11;;;;;;;;;;;;;;;;;;4959376;28;89786;-65
2023/08/21 09:44:37;;;;;;;;;;;;;;;;;;4962881;28;90169;-66
2023/08/21 09:47:04;;;;;;;;;;;;;;;;;;4958193;28;89722;-67
2023/08/21 09:49:29;;;;;;;;;;;;;;;;;;4966053;28;90970;-68
2023/08/21 09:51:55;;;;;;;;;;;;;;;;;;4957974;28;92272;-69
2023/08/21 09:54:20;;;;;;;;;;;;;;;;;;4961171;28;89700;-69
2023/08/21 09:56:47;;;;;;;;;;;;;;;;;;4956873;28;90592;-69
2023/08/21 09:59:13;;;;;;;;;;;;;;;;;;4959621;28;89582;-66
2023/08/21 10:01:38;;;;;;;;;;;;;;;;;;4957336;28;90670;-66
2023/08/21 10:04:05;;;;;;;;;;;;;;;;;;4957756;28;89449;-68
2023/08/21 10:06:31;;;;;;;;;;;;;;;;;;4959612;28;89668;-70
2023/08/21 10:08:56;;;;;;;;;;;;;;;;;;4961435;28;89926;-68
2023/08/21 10:11:21;;;;;;;;;;;;;;;;;;4957159;28;89812;-69
2023/08/21 10:13:47;;;;;;;;;;;;;;;;;;4958648;28;90276;-67
2023/08/21 10:16:12;;;;;;;;;;;;;;;;;;4954783;28;89750;-70
2023/08/21 10:18:38;;;;;;;;;;;;;;;;;;4957389;28;89449;-67
2023/08/21 10:21:14;;;;;;;;;;;;;;;;;;4971470;28;91407;-69
2023/08/21 10:23:40;;;;;;;;;;;;;;;;;;4955851;28;90749;-67
2023/08/21 10:26:06;;;;;;;;;;;;;;;;;;4952517;28;90009;-67
2023/08/21 10:28:42;;;;;;;;;;;;;;;;;;4958679;28;91169;-66
2023/08/21 10:31:26;;;;;;;;;;;;;;;;;;4958079;28;89493;-70
2023/08/21 10:33:51;;;;;;;;;;;;;;;;;;4955113;28;90406;-71
2023/08/21 10:36:37;;;;;;;;;;;;;;;;;;4955448;28;89512;-67
2023/08/21 10:39:04;;;;;;;;;;;;;;;;;;4958523;28;92121;-65
2023/08/21 10:41:29;;;;;;;;;;;;;;;;;;4955113;28;90022;-68
2023/08/21 10:43:55;;;;;;;;;;;;;;;;;;4956997;28;90509;-68
2023/08/21 10:46:20;;;;;;;;;;;;;;;;;;4951481;28;90667;-68
2023/08/21 10:48:45;;;;;;;;;;;;;;;;;;4953789;28;89242;-67
2023/08/21 10:51:12;;;;;;;;;;;;;;;;;;4955201;28;89553;-71
2023/08/21 10:53:38;;;;;;;;;;;;;;;;;;4957934;28;90385;-65
2023/08/21 10:56:04;;;;;;;;;;;;;;;;;;4953891;28;89204;-68
2023/08/21 10:58:42;;;;;;;;;;;;;;;;;;4958948;28;89569;-68
2023/08/21 11:01:07;;;;;;;;;;;;;;;;;;4960257;28;89755;-69
2023/08/21 11:03:33;;;;;;;;;;;;;;;;;;4953245;28;89630;-69
2023/08/21 11:06:02;;;;;;;;;;;;;;;;;;4954828;28;91153;-66
2023/08/21 11:08:28;;;;;;;;;;;;;;;;;;4959530;28;89873;-66
2023/08/21 11:10:53;;;;;;;;;;;;;;;;;;4958692;28;90004;-72
2023/08/21 11:13:18;;;;;;;;;;;;;;;;;;4957267;28;90158;-66
2023/08/21 11:15:45;;;;;;;;;;;;;;;;;;4957144;28;90760;-67
2023/08/21 11:18:10;;;;;;;;;;;;;;;;;;4955746;28;89886;-70
2023/08/21 11:20:35;;;;;;;;;;;;;;;;;;4954322;28;89911;-67
2023/08/21 11:23:08;;;;;;;;;;;;;;;;;;4955549;28;89733;-66
2023/08/21 11:25:33;;;;;;;;;;;;;;;;;;4953294;28;89708;-66
2023/08/21 11:27:59;;;;;;;;;;;;;;;;;;4953652;28;90222;-66
2023/08/21 11:30:24;;;;;;;;;;;;;;;;;;4957226;28;89623;-68
2023/08/21 11:33:03;;;;;;;;;;;;;;;;;;4951905;28;89452;-65
2023/08/21 11:35:29;;;;;;;;;;;;;;;;;;4949918;28;90749;-65
2023/08/21 11:37:54;;;;;;;;;;;;;;;;;;4958730;28;89280;-69
2023/08/21 11:40:19;;;;;;;;;;;;;;;;;;4950365;28;91273;-65
2023/08/21 11:42:45;;;;;;;;;;;;;;;;;;4951578;28;89744;-70
2023/08/21 11:45:10;;;;;;;;;;;;;;;;;;4956092;28;90951;-65
2023/08/21 11:47:36;;;;;;;;;;;;;;;;;;4947811;28;90092;-67
2023/08/21 11:50:05;;;;;;;;;;;;;;;;;;4952125;28;90101;-69
2023/08/21 11:52:31;;;;;;;;;;;;;;;;;;4954254;28;92690;-67
2023/08/21 11:54:57;;;;;;;;;;;;;;;;;;4953004;28;90751;-66
2023/08/21 11:57:22;;;;;;;;;;;;;;;;;;4954899;28;89626;-65
2023/08/21 11:59:51;;;;;;;;;;;;;;;;;;4959751;28;89594;-65
2023/08/21 12:02:17;;;;;;;;;;;;;;;;;;4954590;28;89798;-66
2023/08/21 12:04:43;;;;;;;;;;;;;;;;;;4952710;28;89963;-66
2023/08/21 12:07:08;;;;;;;;;;;;;;;;;;4955313;28;90124;-66
2023/08/21 12:09:33;;;;;;;;;;;;;;;;;;4952722;28;89724;-66
2023/08/21 12:11:59;;;;;;;;;;;;;;;;;;4958569;28;91133;-68
2023/08/21 12:14:24;;;;;;;;;;;;;;;;;;4959930;28;90205;-69
2023/08/21 12:16:50;;;;;;;;;;;;;;;;;;4953229;28;89104;-74
2023/08/21 12:19:15;;;;;;;;;;;;;;;;;;4959833;28;89405;-67
2023/08/21 12:21:40;;;;;;;;;;;;;;;;;;4953944;28;89178;-66
2023/08/21 12:24:06;;;;;;;;;;;;;;;;;;4952976;28;89518;-72
2023/08/21 12:26:31;;;;;;;;;;;;;;;;;;4955025;28;91847;-65
2023/08/21 12:28:56;;;;;;;;;;;;;;;;;;4953076;28;89982;-67
2023/08/21 12:31:22;;;;;;;;;;;;;;;;;;4953343;28;89490;-65
2023/08/21 12:33:47;;;;;;;;;;;;;;;;;;4952189;28;89628;-66
2023/08/21 12:36:12;;;;;;;;;;;;;;;;;;4955821;28;89441;-67
2023/08/21 12:38:37;;;;;;;;;;;;;;;;;;4954220;28;89644;-71
2023/08/21 12:41:02;;;;;;;;;;;;;;;;;;4958087;28;89194;-66
2023/08/21 12:43:28;;;;;;;;;;;;;;;;;;4953894;28;90761;-66
2023/08/21 12:45:53;;;;;;;;;;;;;;;;;;4952022;28;89788;-69
2023/08/21 12:48:18;;;;;;;;;;;;;;;;;;4954847;28;89661;-71
2023/08/21 12:50:43;;;;;;;;;;;;;;;;;;4959457;28;90660;-68
2023/08/21 12:53:09;;;;;;;;;;;;;;;;;;4960928;28;91565;-71
2023/08/21 12:55:34;;;;;;;;;;;;;;;;;;4953752;28;90515;-67
2023/08/21 12:57:59;;;;;;;;;;;;;;;;;;4958833;28;90647;-65
2023/08/21 13:00:24;;;;;;;;;;;;;;;;;;4958843;28;90342;-66
2023/08/21 13:02:50;;;;;;;;;;;;;;;;;;4960121;28;89383;-65
2023/08/21 13:05:15;;;;;;;;;;;;;;;;;;4962277;28;89480;-74
2023/08/21 13:07:41;;;;;;;;;;;;;;;;;;4954810;28;89587;-68
2023/08/21 13:10:06;;;;;;;;;;;;;;;;;;4954147;28;89816;-67
2023/08/21 13:12:32;;;;;;;;;;;;;;;;;;4955447;28;90793;-68
2023/08/21 13:14:58;;;;;;;;;;;;;;;;;;4955725;28;89493;-72
2023/08/21 13:17:23;;;;;;;;;;;;;;;;;;4962161;28;90728;-73
2023/08/21 13:19:48;;;;;;;;;;;;;;;;;;4962089;28;90659;-72
2023/08/21 13:22:16;;;;;;;;;;;;;;;;;;4952186;28;89139;-73
2023/08/21 13:24:41;;;;;;;;;;;;;;;;;;4963365;28;89327;-66
2023/08/21 13:27:06;;;;;;;;;;;;;;;;;;4962021;28;89923;-65
2023/08/21 13:29:32;;;;;;;;;;;;;;;;;;4953335;28;89706;-68
2023/08/21 13:31:57;;;;;;;;;;;;;;;;;;4959381;28;89387;-76
2023/08/21 13:34:22;;;;;;;;;;;;;;;;;;4955920;28;89812;-71
2023/08/21 13:36:48;;;;;;;;;;;;;;;;;;4957746;28;89635;-66
2023/08/21 13:39:15;;;;;;;;;;;;;;;;;;4953893;28;89574;-65
2023/08/21 13:41:40;;;;;;;;;;;;;;;;;;4956669;28;90473;-68
2023/08/21 13:44:05;;;;;;;;;;;;;;;;;;4950652;28;89343;-70
2023/08/21 13:46:32;;;;;;;;;;;;;;;;;;4956171;28;89488;-74
2023/08/21 13:48:58;;;;;;;;;;;;;;;;;;4962365;28;89116;-72
2023/08/21 13:51:23;;;;;;;;;;;;;;;;;;4956208;28;90080;-71
2023/08/21 13:53:48;;;;;;;;;;;;;;;;;;4961284;28;91178;-69
2023/08/21 13:56:13;;;;;;;;;;;;;;;;;;4957069;28;90268;-68
2023/08/21 13:58:38;;;;;;;;;;;;;;;;;;4953937;28;90072;-69
2023/08/21 14:01:04;;;;;;;;;;;;;;;;;;4957019;28;89895;-68
2023/08/21 14:03:29;;;;;;;;;;;;;;;;;;4955867;28;89500;-71
2023/08/21 14:05:54;;;;;;;;;;;;;;;;;;4951125;28;91093;-66
2023/08/21 14:08:20;;;;;;;;;;;;;;;;;;4955141;28;89676;-73
2023/08/21 14:10:45;;;;;;;;;;;;;;;;;;4958636;28;90305;-74
2023/08/21 14:13:10;;;;;;;;;;;;;;;;;;4955927;28;89424;-69
2023/08/21 14:15:35;;;;;;;;;;;;;;;;;;4955858;28;89749;-72
2023/08/21 14:18:01;;;;;;;;;;;;;;;;;;4955827;28;89782;-72
2023/08/21 14:20:26;;;;;;;;;;;;;;;;;;4955120;28;89976;-74
2023/08/21 14:22:51;;;;;;;;;;;;;;;;;;4957134;28;89740;-70
2023/08/21 14:25:17;;;;;;;;;;;;;;;;;;4959019;28;90162;-75
2023/08/21 14:27:42;;;;;;;;;;;;;;;;;;4962507;28;89737;-75
2023/08/21 14:30:08;;;;;;;;;;;;;;;;;;4958804;28;89741;-70
2023/08/21 14:32:33;;;;;;;;;;;;;;;;;;4959749;28;89724;-68
2023/08/21 14:34:59;;;;;;;;;;;;;;;;;;4953838;28;90630;-70
2023/08/21 14:37:24;;;;;;;;;;;;;;;;;;4956646;28;89282;-69
2023/08/21 14:39:49;;;;;;;;;;;;;;;;;;4953527;28;89257;-70
2023/08/21 14:42:15;;;;;;;;;;;;;;;;;;4950381;28;90184;-67
2023/08/21 14:44:40;;;;;;;;;;;;;;;;;;4956858;28;89673;-67
2023/08/21 14:47:05;;;;;;;;;;;;;;;;;;4954914;28;89691;-67
2023/08/21 14:49:31;;;;;;;;;;;;;;;;;;4955043;28;90707;-68
2023/08/21 14:51:57;;;;;;;;;;;;;;;;;;4952287;28;89576;-72
2023/08/21 14:54:22;;;;;;;;;;;;;;;;;;4955227;28;92830;-75
2023/08/21 14:56:48;;;;;;;;;;;;;;;;;;4954831;28;89528;-70
2023/08/21 14:59:14;;;;;;;;;;;;;;;;;;4947202;28;89683;-66
2023/08/21 15:01:39;;;;;;;;;;;;;;;;;;4956339;28;89610;-71
2023/08/21 15:04:11;;;;;;;;;;;;;;;;;;4955334;28;89318;-72
2023/08/21 15:06:37;;;;;;;;;;;;;;;;;;4956188;28;89999;-66
2023/08/21 15:09:04;;;;;;;;;;;;;;;;;;4951440;28;89553;-67
2023/08/21 15:11:30;;;;;;;;;;;;;;;;;;4958891;28;90406;-71
2023/08/21 15:13:55;;;;;;;;;;;;;;;;;;4959270;28;89524;-68
2023/08/21 15:16:20;;;;;;;;;;;;;;;;;;4955319;28;90161;-72
2023/08/21 15:18:52;;;;;;;;;;;;;;;;;;4951770;28;89653;-71
2023/08/21 15:21:17;;;;;;;;;;;;;;;;;;4959919;28;89832;-73
2023/08/21 15:23:42;;;;;;;;;;;;;;;;;;4956533;28;90039;-72
2023/08/21 15:26:07;;;;;;;;;;;;;;;;;;4954657;28;89776;-73
2023/08/21 15:28:32;;;;;;;;;;;;;;;;;;4950538;28;89805;-70
2023/08/21 15:30:58;;;;;;;;;;;;;;;;;;4951639;28;90136;-74
2023/08/21 15:33:23;;;;;;;;;;;;;;;;;;4958233;28;89592;-74
2023/08/21 15:35:48;;;;;;;;;;;;;;;;;;4952600;28;89511;-68
2023/08/21 15:38:13;;;;;;;;;;;;;;;;;;4958589;28;90587;-71
2023/08/21 15:40:38;;;;;;;;;;;;;;;;;;4956851;28;89599;-75
2023/08/21 15:43:07;;;;;;;;;;;;;;;;;;4952578;28;89972;-70
2023/08/21 15:45:32;;;;;;;;;;;;;;;;;;4954389;28;89999;-74
2023/08/21 15:47:57;;;;;;;;;;;;;;;;;;4959506;28;89607;-76
2023/08/21 15:50:22;;;;;;;;;;;;;;;;;;4951777;28;90181;-75
2023/08/21 15:52:48;;;;;;;;;;;;;;;;;;4958273;28;90136;-70
2023/08/21 15:55:14;;;;;;;;;;;;;;;;;;4955835;28;89806;-75
2023/08/21 15:57:39;;;;;;;;;;;;;;;;;;4959154;28;89514;-73
2023/08/21 16:00:05;;;;;;;;;;;;;;;;;;4954276;28;89654;-73
2023/08/21 16:02:30;;;;;;;;;;;;;;;;;;4953661;28;89261;-68
2023/08/21 16:04:56;;;;;;;;;;;;;;;;;;4949651;28;89928;-70
2023/08/21 16:07:21;;;;;;;;;;;;;;;;;;4957401;28;90046;-68
2023/08/21 16:09:46;;;;;;;;;;;;;;;;;;4953928;28;89908;-69
2023/08/21 16:12:11;;;;;;;;;;;;;;;;;;4953871;28;89203;-67
2023/08/21 16:14:37;;;;;;;;;;;;;;;;;;4953684;28;89508;-67
2023/08/21 16:17:02;;;;;;;;;;;;;;;;;;4958346;28;89142;-67
2023/08/21 16:19:27;;;;;;;;;;;;;;;;;;4953401;28;90183;-68
2023/08/21 16:21:52;;;;;;;;;;;;;;;;;;4951525;28;90580;-73
2023/08/21 16:24:18;;;;;;;;;;;;;;;;;;4952886;28;90317;-69
2023/08/21 16:26:44;;;;;;;;;;;;;;;;;;4958470;28;90606;-69
2023/08/21 16:29:11;;;;;;;;;;;;;;;;;;4956379;28;89169;-68
2023/08/21 16:31:37;;;;;;;;;;;;;;;;;;4956062;28;89847;-69
2023/08/21 16:34:02;;;;;;;;;;;;;;;;;;4954231;28;89916;-69
2023/08/21 16:36:27;;;;;;;;;;;;;;;;;;4956167;28;90402;-66